sensor_id;sensor_type;location;lat;lon;timestamp;temperature;humidity
59234;DHT22;60776;51.702;7.462;2023-08-30T00:01:08;18.60;99.90
59234;DHT22;60776;51.702;7.462;2023-08-30T00:03:34;18.60;99.90
59234;DHT22;60776;51.702;7.462;2023-08-30T00:06:06;18.60;99.90
59234;DHT22;60776;51.702;7.462;2023-08-30T00:08:33;18.50;99.90
59234;DHT22;60776;51.702;7.462;2023-08-30T00:10:58;18.40;99.90
59234;DHT22;60776;51.702;7.462;2023-08-30T00:13:25;18.30;99.90
59234;DHT22;60776;51.702;7.462;2023-08-30T00:15:51;18.30;99.90
59234;DHT22;60776;51.702;7.462;2023-08-30T00:18:17;18.30;99.90
59234;DHT22;60776;51.702;7.462;2023-08-30T00:20:48;18.30;99.90
59234;DHT22;60776;51.702;7.462;2023-08-30T00:23:14;18.20;99.90
59234;DHT22;60776;51.702;7.462;2023-08-30T00:25:39;18.30;99.90
59234;DHT22;60776;51.702;7.462;2023-08-30T00:28:05;18.30;99.90
59234;DHT22;60776;51.702;7.462;2023-08-30T00:30:32;18.20;99.90
59234;DHT22;60776;51.702;7.462;2023-08-30T00:32:57;18.20;99.90
59234;DHT22;60776;51.702;7.462;2023-08-30T00:35:23;18.20;99.90
59234;DHT22;60776;51.702;7.462;2023-08-30T00:37:48;18.20;99.90
59234;DHT22;60776;51.702;7.462;2023-08-30T00:40:14;18.10;99.90
59234;DHT22;60776;51.702;7.462;2023-08-30T00:42:40;18.00;99.90
59234;DHT22;60776;51.702;7.462;2023-08-30T00:45:06;18.00;99.90
59234;DHT22;60776;51.702;7.462;2023-08-30T00:47:32;17.90;99.90
59234;DHT22;60776;51.702;7.462;2023-08-30T00:49:58;17.90;99.90
59234;DHT22;60776;51.702;7.462;2023-08-30T00:52:24;17.80;99.90
59234;DHT22;60776;51.702;7.462;2023-08-30T00:54:50;17.80;99.90
59234;DHT22;60776;51.702;7.462;2023-08-30T00:57:16;17.70;99.90
59234;DHT22;60776;51.702;7.462;2023-08-30T00:59:42;17.60;99.90
59234;DHT22;60776;51.702;7.462;2023-08-30T01:02:07;17.60;99.90
59234;DHT22;60776;51.702;7.462;2023-08-30T01:04:33;17.50;99.90
59234;DHT22;60776;51.702;7.462;2023-08-30T01:06:59;17.50;99.90
59234;DHT22;60776;51.702;7.462;2023-08-30T01:09:25;17.40;99.90
59234;DHT22;60776;51.702;7.462;2023-08-30T01:14:38;17.30;99.90
59234;DHT22;60776;51.702;7.462;2023-08-30T01:17:07;17.20;99.90
59234;DHT22;60776;51.702;7.462;2023-08-30T01:27:26;17.00;99.90
59234;DHT22;60776;51.702;7.462;2023-08-30T01:29:54;17.00;99.90
59234;DHT22;60776;51.702;7.462;2023-08-30T01:32:21;16.90;99.90
59234;DHT22;60776;51.702;7.462;2023-08-30T01:34:53;16.80;99.90
59234;DHT22;60776;51.702;7.462;2023-08-30T01:37:21;16.70;99.90
59234;DHT22;60776;51.702;7.462;2023-08-30T01:39:47;16.60;99.90
59234;DHT22;60776;51.702;7.462;2023-08-30T01:42:13;16.60;99.90
59234;DHT22;60776;51.702;7.462;2023-08-30T01:44:40;16.50;99.90
59234;DHT22;60776;51.702;7.462;2023-08-30T01:47:10;16.50;99.90
59234;DHT22;60776;51.702;7.462;2023-08-30T01:49:36;16.40;99.90
59234;DHT22;60776;51.702;7.462;2023-08-30T01:52:06;16.30;99.90
59234;DHT22;60776;51.702;7.462;2023-08-30T01:54:32;16.30;99.90
59234;DHT22;60776;51.702;7.462;2023-08-30T01:56:58;16.30;99.90
59234;DHT22;60776;51.702;7.462;2023-08-30T01:59:26;16.30;99.90
59234;DHT22;60776;51.702;7.462;2023-08-30T02:01:52;16.30;99.90
59234;DHT22;60776;51.702;7.462;2023-08-30T02:04:17;16.20;99.90
59234;DHT22;60776;51.702;7.462;2023-08-30T02:07:04;16.20;99.90
59234;DHT22;60776;51.702;7.462;2023-08-30T02:09:42;16.20;99.90
59234;DHT22;60776;51.702;7.462;2023-08-30T02:12:15;16.20;99.90
59234;DHT22;60776;51.702;7.462;2023-08-30T02:14:47;16.20;99.90
59234;DHT22;60776;51.702;7.462;2023-08-30T02:17:17;16.10;99.90
59234;DHT22;60776;51.702;7.462;2023-08-30T02:19:44;16.10;99.90
59234;DHT22;60776;51.702;7.462;2023-08-30T02:22:10;16.00;99.90
59234;DHT22;60776;51.702;7.462;2023-08-30T02:24:36;16.10;99.90
59234;DHT22;60776;51.702;7.462;2023-08-30T02:27:01;16.10;99.90
59234;DHT22;60776;51.702;7.462;2023-08-30T02:29:27;16.00;99.90
59234;DHT22;60776;51.702;7.462;2023-08-30T02:31:53;16.00;99.90
59234;DHT22;60776;51.702;7.462;2023-08-30T02:34:18;16.00;99.90
59234;DHT22;60776;51.702;7.462;2023-08-30T02:36:44;16.00;99.90
59234;DHT22;60776;51.702;7.462;2023-08-30T02:39:11;16.00;99.90
59234;DHT22;60776;51.702;7.462;2023-08-30T02:41:37;16.00;99.90
59234;DHT22;60776;51.702;7.462;2023-08-30T02:44:03;15.90;99.90
59234;DHT22;60776;51.702;7.462;2023-08-30T02:46:28;15.90;99.90
59234;DHT22;60776;51.702;7.462;2023-08-30T02:48:54;15.90;99.90
59234;DHT22;60776;51.702;7.462;2023-08-30T02:51:21;15.90;99.90
59234;DHT22;60776;51.702;7.462;2023-08-30T02:53:46;15.90;99.90
59234;DHT22;60776;51.702;7.462;2023-08-30T02:56:14;15.90;99.90
59234;DHT22;60776;51.702;7.462;2023-08-30T02:58:40;15.90;99.90
59234;DHT22;60776;51.702;7.462;2023-08-30T03:01:06;15.80;99.90
59234;DHT22;60776;51.702;7.462;2023-08-30T03:03:32;15.80;99.90
59234;DHT22;60776;51.702;7.462;2023-08-30T03:05:58;15.80;99.90
59234;DHT22;60776;51.702;7.462;2023-08-30T03:08:23;15.70;99.90
59234;DHT22;60776;51.702;7.462;2023-08-30T03:10:49;15.70;99.90
59234;DHT22;60776;51.702;7.462;2023-08-30T03:13:15;15.60;99.90
59234;DHT22;60776;51.702;7.462;2023-08-30T03:15:40;15.60;99.90
59234;DHT22;60776;51.702;7.462;2023-08-30T03:18:06;15.60;99.90
59234;DHT22;60776;51.702;7.462;2023-08-30T03:20:32;15.50;99.90
59234;DHT22;60776;51.702;7.462;2023-08-30T03:22:57;15.60;99.90
59234;DHT22;60776;51.702;7.462;2023-08-30T03:25:23;15.50;99.90
59234;DHT22;60776;51.702;7.462;2023-08-30T03:27:49;15.50;99.90
59234;DHT22;60776;51.702;7.462;2023-08-30T03:30:15;15.40;99.90
59234;DHT22;60776;51.702;7.462;2023-08-30T03:32:41;15.40;99.90
59234;DHT22;60776;51.702;7.462;2023-08-30T03:35:07;15.40;99.90
59234;DHT22;60776;51.702;7.462;2023-08-30T03:37:33;15.40;99.90
59234;DHT22;60776;51.702;7.462;2023-08-30T03:39:59;15.40;99.90
59234;DHT22;60776;51.702;7.462;2023-08-30T03:42:24;15.40;99.90
59234;DHT22;60776;51.702;7.462;2023-08-30T03:44:50;15.40;99.90
59234;DHT22;60776;51.702;7.462;2023-08-30T03:47:16;15.30;99.90
59234;DHT22;60776;51.702;7.462;2023-08-30T03:49:43;15.30;99.90
59234;DHT22;60776;51.702;7.462;2023-08-30T03:52:08;15.30;99.90
59234;DHT22;60776;51.702;7.462;2023-08-30T03:54:34;15.30;99.90
59234;DHT22;60776;51.702;7.462;2023-08-30T03:57:00;15.30;99.90
59234;DHT22;60776;51.702;7.462;2023-08-30T03:59:25;15.30;99.90
59234;DHT22;60776;51.702;7.462;2023-08-30T04:01:53;15.20;99.90
59234;DHT22;60776;51.702;7.462;2023-08-30T04:04:18;15.20;99.90
59234;DHT22;60776;51.702;7.462;2023-08-30T04:06:44;15.10;99.90
59234;DHT22;60776;51.702;7.462;2023-08-30T04:09:10;15.10;99.90
59234;DHT22;60776;51.702;7.462;2023-08-30T04:11:35;15.00;99.90
59234;DHT22;60776;51.702;7.462;2023-08-30T04:14:01;15.00;99.90
59234;DHT22;60776;51.702;7.462;2023-08-30T04:16:27;15.00;99.90
59234;DHT22;60776;51.702;7.462;2023-08-30T04:18:54;15.00;99.90
59234;DHT22;60776;51.702;7.462;2023-08-30T04:21:19;15.00;99.90
59234;DHT22;60776;51.702;7.462;2023-08-30T04:23:47;15.00;99.90
59234;DHT22;60776;51.702;7.462;2023-08-30T04:26:13;15.00;99.90
59234;DHT22;60776;51.702;7.462;2023-08-30T04:28:38;15.00;99.90
59234;DHT22;60776;51.702;7.462;2023-08-30T04:31:04;15.00;99.90
59234;DHT22;60776;51.702;7.462;2023-08-30T04:33:30;15.00;99.90
59234;DHT22;60776;51.702;7.462;2023-08-30T04:35:56;14.90;99.90
59234;DHT22;60776;51.702;7.462;2023-08-30T04:38:21;14.90;99.90
59234;DHT22;60776;51.702;7.462;2023-08-30T04:40:47;14.80;99.90
59234;DHT22;60776;51.702;7.462;2023-08-30T04:43:14;14.80;99.90
59234;DHT22;60776;51.702;7.462;2023-08-30T04:45:40;14.80;99.90
59234;DHT22;60776;51.702;7.462;2023-08-30T04:48:05;14.80;99.90
59234;DHT22;60776;51.702;7.462;2023-08-30T04:50:31;14.80;99.90
59234;DHT22;60776;51.702;7.462;2023-08-30T04:52:57;14.80;99.90
59234;DHT22;60776;51.702;7.462;2023-08-30T04:55:29;14.80;99.90
59234;DHT22;60776;51.702;7.462;2023-08-30T04:57:55;14.80;99.90
59234;DHT22;60776;51.702;7.462;2023-08-30T05:00:21;14.80;99.90
59234;DHT22;60776;51.702;7.462;2023-08-30T05:02:47;14.80;99.90
59234;DHT22;60776;51.702;7.462;2023-08-30T05:05:13;14.80;99.90
59234;DHT22;60776;51.702;7.462;2023-08-30T05:07:39;14.80;99.90
59234;DHT22;60776;51.702;7.462;2023-08-30T05:10:05;14.80;99.90
59234;DHT22;60776;51.702;7.462;2023-08-30T05:12:35;14.80;99.90
59234;DHT22;60776;51.702;7.462;2023-08-30T05:15:01;14.90;99.90
59234;DHT22;60776;51.702;7.462;2023-08-30T05:17:29;15.00;99.90
59234;DHT22;60776;51.702;7.462;2023-08-30T05:19:54;15.10;99.90
59234;DHT22;60776;51.702;7.462;2023-08-30T05:22:20;15.20;99.90
59234;DHT22;60776;51.702;7.462;2023-08-30T05:24:46;15.30;99.90
59234;DHT22;60776;51.702;7.462;2023-08-30T05:27:11;15.40;99.90
59234;DHT22;60776;51.702;7.462;2023-08-30T05:29:38;15.50;99.90
59234;DHT22;60776;51.702;7.462;2023-08-30T05:32:04;15.50;99.90
59234;DHT22;60776;51.702;7.462;2023-08-30T05:34:30;15.50;99.90
59234;DHT22;60776;51.702;7.462;2023-08-30T05:36:58;15.60;99.90
59234;DHT22;60776;51.702;7.462;2023-08-30T05:39:24;15.60;99.90
59234;DHT22;60776;51.702;7.462;2023-08-30T05:41:49;15.70;99.90
59234;DHT22;60776;51.702;7.462;2023-08-30T05:44:15;15.70;99.90
59234;DHT22;60776;51.702;7.462;2023-08-30T05:46:40;15.80;99.90
59234;DHT22;60776;51.702;7.462;2023-08-30T05:49:06;15.80;99.90
59234;DHT22;60776;51.702;7.462;2023-08-30T05:51:32;15.90;99.90
59234;DHT22;60776;51.702;7.462;2023-08-30T05:53:57;16.10;99.90
59234;DHT22;60776;51.702;7.462;2023-08-30T05:56:23;16.10;99.90
59234;DHT22;60776;51.702;7.462;2023-08-30T05:58:51;16.40;99.90
59234;DHT22;60776;51.702;7.462;2023-08-30T06:01:18;16.70;99.90
59234;DHT22;60776;51.702;7.462;2023-08-30T06:03:44;17.10;99.90
59234;DHT22;60776;51.702;7.462;2023-08-30T06:06:11;17.40;99.90
59234;DHT22;60776;51.702;7.462;2023-08-30T06:08:37;17.60;99.90
59234;DHT22;60776;51.702;7.462;2023-08-30T06:11:02;17.60;99.90
59234;DHT22;60776;51.702;7.462;2023-08-30T06:13:28;17.80;99.90
59234;DHT22;60776;51.702;7.462;2023-08-30T06:15:53;18.00;99.90
59234;DHT22;60776;51.702;7.462;2023-08-30T06:18:19;18.30;99.90
59234;DHT22;60776;51.702;7.462;2023-08-30T06:20:45;18.70;99.90
59234;DHT22;60776;51.702;7.462;2023-08-30T06:23:11;19.10;99.90
59234;DHT22;60776;51.702;7.462;2023-08-30T06:25:37;19.40;99.90
59234;DHT22;60776;51.702;7.462;2023-08-30T06:28:05;19.70;99.90
59234;DHT22;60776;51.702;7.462;2023-08-30T06:30:31;19.90;99.90
59234;DHT22;60776;51.702;7.462;2023-08-30T06:32:57;20.10;99.90
59234;DHT22;60776;51.702;7.462;2023-08-30T06:35:23;20.30;99.90
59234;DHT22;60776;51.702;7.462;2023-08-30T06:37:49;20.40;99.90
59234;DHT22;60776;51.702;7.462;2023-08-30T06:40:15;20.60;99.90
59234;DHT22;60776;51.702;7.462;2023-08-30T06:42:40;20.90;99.90
59234;DHT22;60776;51.702;7.462;2023-08-30T06:45:06;20.90;99.90
59234;DHT22;60776;51.702;7.462;2023-08-30T06:47:32;21.00;99.90
59234;DHT22;60776;51.702;7.462;2023-08-30T06:50:00;21.40;99.90
59234;DHT22;60776;51.702;7.462;2023-08-30T06:52:27;21.80;99.90
59234;DHT22;60776;51.702;7.462;2023-08-30T06:54:52;22.20;99.90
59234;DHT22;60776;51.702;7.462;2023-08-30T06:57:20;22.50;99.90
59234;DHT22;60776;51.702;7.462;2023-08-30T06:59:47;22.70;99.90
59234;DHT22;60776;51.702;7.462;2023-08-30T07:02:12;23.10;99.90
59234;DHT22;60776;51.702;7.462;2023-08-30T07:04:42;23.30;99.90
59234;DHT22;60776;51.702;7.462;2023-08-30T07:07:07;23.70;99.90
59234;DHT22;60776;51.702;7.462;2023-08-30T07:09:35;23.90;99.90
59234;DHT22;60776;51.702;7.462;2023-08-30T07:12:01;24.40;99.90
59234;DHT22;60776;51.702;7.462;2023-08-30T07:14:26;24.90;99.90
59234;DHT22;60776;51.702;7.462;2023-08-30T07:16:52;25.30;99.90
59234;DHT22;60776;51.702;7.462;2023-08-30T07:19:18;25.60;99.00
59234;DHT22;60776;51.702;7.462;2023-08-30T07:21:43;26.10;96.40
59234;DHT22;60776;51.702;7.462;2023-08-30T07:24:09;26.10;93.50
59234;DHT22;60776;51.702;7.462;2023-08-30T07:26:35;26.40;93.70
59234;DHT22;60776;51.702;7.462;2023-08-30T07:29:01;26.20;91.40
59234;DHT22;60776;51.702;7.462;2023-08-30T07:31:27;25.90;91.10
59234;DHT22;60776;51.702;7.462;2023-08-30T07:33:53;25.50;91.80
59234;DHT22;60776;51.702;7.462;2023-08-30T07:36:18;25.10;92.00
59234;DHT22;60776;51.702;7.462;2023-08-30T07:38:44;24.90;93.00
59234;DHT22;60776;51.702;7.462;2023-08-30T07:41:10;24.50;93.60
59234;DHT22;60776;51.702;7.462;2023-08-30T07:43:35;24.10;94.10
59234;DHT22;60776;51.702;7.462;2023-08-30T07:46:01;23.30;95.20
59234;DHT22;60776;51.702;7.462;2023-08-30T07:48:27;23.00;97.70
59234;DHT22;60776;51.702;7.462;2023-08-30T07:50:53;22.80;99.10
59234;DHT22;60776;51.702;7.462;2023-08-30T07:53:18;22.50;99.90
59234;DHT22;60776;51.702;7.462;2023-08-30T07:55:51;22.40;99.90
59234;DHT22;60776;51.702;7.462;2023-08-30T07:58:19;22.50;99.90
59234;DHT22;60776;51.702;7.462;2023-08-30T08:00:45;22.70;99.90
59234;DHT22;60776;51.702;7.462;2023-08-30T08:03:10;22.80;99.90
59234;DHT22;60776;51.702;7.462;2023-08-30T08:05:36;23.00;99.90
59234;DHT22;60776;51.702;7.462;2023-08-30T08:08:03;23.30;99.90
59234;DHT22;60776;51.702;7.462;2023-08-30T08:10:33;23.90;99.90
59234;DHT22;60776;51.702;7.462;2023-08-30T08:13:01;25.10;99.30
59234;DHT22;60776;51.702;7.462;2023-08-30T08:15:28;26.20;95.40
59234;DHT22;60776;51.702;7.462;2023-08-30T08:17:56;26.50;90.90
59234;DHT22;60776;51.702;7.462;2023-08-30T08:20:22;26.80;90.20
59234;DHT22;60776;51.702;7.462;2023-08-30T08:22:48;26.40;86.80
59234;DHT22;60776;51.702;7.462;2023-08-30T08:25:13;26.00;86.70
59234;DHT22;60776;51.702;7.462;2023-08-30T08:27:42;26.00;87.80
59234;DHT22;60776;51.702;7.462;2023-08-30T08:30:08;25.80;86.70
59234;DHT22;60776;51.702;7.462;2023-08-30T08:32:35;25.50;86.20
59234;DHT22;60776;51.702;7.462;2023-08-30T08:35:01;25.30;84.90
59234;DHT22;60776;51.702;7.462;2023-08-30T08:37:26;24.80;85.60
59234;DHT22;60776;51.702;7.462;2023-08-30T08:39:52;24.20;87.40
59234;DHT22;60776;51.702;7.462;2023-08-30T08:42:19;24.00;89.40
59234;DHT22;60776;51.702;7.462;2023-08-30T08:44:53;24.00;90.20
59234;DHT22;60776;51.702;7.462;2023-08-30T08:47:20;23.90;90.30
59234;DHT22;60776;51.702;7.462;2023-08-30T08:49:50;24.10;91.20
59234;DHT22;60776;51.702;7.462;2023-08-30T08:52:16;24.70;90.50
59234;DHT22;60776;51.702;7.462;2023-08-30T08:54:43;25.10;87.80
59234;DHT22;60776;51.702;7.462;2023-08-30T08:57:09;25.30;86.40
59234;DHT22;60776;51.702;7.462;2023-08-30T08:59:35;25.00;81.70
59234;DHT22;60776;51.702;7.462;2023-08-30T09:02:02;25.10;82.50
59234;DHT22;60776;51.702;7.462;2023-08-30T09:04:30;25.40;82.60
59234;DHT22;60776;51.702;7.462;2023-08-30T09:06:57;25.70;80.40
59234;DHT22;60776;51.702;7.462;2023-08-30T09:09:23;25.80;78.60
59234;DHT22;60776;51.702;7.462;2023-08-30T09:11:49;25.80;76.60
59234;DHT22;60776;51.702;7.462;2023-08-30T09:14:15;26.00;78.50
59234;DHT22;60776;51.702;7.462;2023-08-30T09:16:41;25.80;72.30
59234;DHT22;60776;51.702;7.462;2023-08-30T09:19:06;25.20;73.40
59234;DHT22;60776;51.702;7.462;2023-08-30T09:21:33;24.80;74.30
59234;DHT22;60776;51.702;7.462;2023-08-30T09:24:03;24.40;75.60
59234;DHT22;60776;51.702;7.462;2023-08-30T09:26:30;24.10;76.20
59234;DHT22;60776;51.702;7.462;2023-08-30T09:29:04;24.00;78.10
59234;DHT22;60776;51.702;7.462;2023-08-30T09:31:39;23.90;78.20
59234;DHT22;60776;51.702;7.462;2023-08-30T09:34:08;23.70;77.70
59234;DHT22;60776;51.702;7.462;2023-08-30T09:36:38;23.70;78.90
59234;DHT22;60776;51.702;7.462;2023-08-30T09:41:31;23.70;80.00
59234;DHT22;60776;51.702;7.462;2023-08-30T09:43:59;23.70;80.60
59234;DHT22;60776;51.702;7.462;2023-08-30T09:46:25;23.70;81.60
59234;DHT22;60776;51.702;7.462;2023-08-30T09:48:50;23.70;81.00
59234;DHT22;60776;51.702;7.462;2023-08-30T09:51:18;23.70;80.70
59234;DHT22;60776;51.702;7.462;2023-08-30T09:53:49;23.60;81.40
59234;DHT22;60776;51.702;7.462;2023-08-30T09:56:18;23.60;80.80
59234;DHT22;60776;51.702;7.462;2023-08-30T09:58:45;23.50;80.40
59234;DHT22;60776;51.702;7.462;2023-08-30T10:01:11;23.40;80.90
59234;DHT22;60776;51.702;7.462;2023-08-30T10:03:37;23.70;82.50
59234;DHT22;60776;51.702;7.462;2023-08-30T10:06:06;24.30;81.60
59234;DHT22;60776;51.702;7.462;2023-08-30T10:08:34;25.00;81.20
59234;DHT22;60776;51.702;7.462;2023-08-30T10:11:03;25.50;78.50
59234;DHT22;60776;51.702;7.462;2023-08-30T10:13:30;26.10;77.90
59234;DHT22;60776;51.702;7.462;2023-08-30T10:16:01;27.30;74.00
59234;DHT22;60776;51.702;7.462;2023-08-30T10:18:29;28.00;71.60
59234;DHT22;60776;51.702;7.462;2023-08-30T10:20:59;28.30;68.10
59234;DHT22;60776;51.702;7.462;2023-08-30T10:23:28;28.20;67.10
59234;DHT22;60776;51.702;7.462;2023-08-30T10:25:54;27.90;65.80
59234;DHT22;60776;51.702;7.462;2023-08-30T10:28:23;27.20;64.60
59234;DHT22;60776;51.702;7.462;2023-08-30T10:30:50;26.50;71.20
59234;DHT22;60776;51.702;7.462;2023-08-30T10:33:16;25.90;77.80
59234;DHT22;60776;51.702;7.462;2023-08-30T10:35:50;25.40;82.30
59234;DHT22;60776;51.702;7.462;2023-08-30T10:38:29;25.00;87.80
59234;DHT22;60776;51.702;7.462;2023-08-30T10:40:58;25.00;89.30
59234;DHT22;60776;51.702;7.462;2023-08-30T10:43:35;25.00;91.10
59234;DHT22;60776;51.702;7.462;2023-08-30T10:46:02;25.00;91.30
59234;DHT22;60776;51.702;7.462;2023-08-30T10:48:35;24.80;92.20
59234;DHT22;60776;51.702;7.462;2023-08-30T10:51:01;24.30;94.30
59234;DHT22;60776;51.702;7.462;2023-08-30T10:53:30;23.80;95.90
59234;DHT22;60776;51.702;7.462;2023-08-30T10:56:11;23.30;99.70
59234;DHT22;60776;51.702;7.462;2023-08-30T10:58:44;22.90;99.90
59234;DHT22;60776;51.702;7.462;2023-08-30T11:01:10;22.60;99.90
59234;DHT22;60776;51.702;7.462;2023-08-30T11:03:39;22.30;99.90
59234;DHT22;60776;51.702;7.462;2023-08-30T11:06:05;22.00;99.90
59234;DHT22;60776;51.702;7.462;2023-08-30T11:08:31;21.70;99.90
59234;DHT22;60776;51.702;7.462;2023-08-30T11:11:04;21.40;99.90
59234;DHT22;60776;51.702;7.462;2023-08-30T11:13:30;21.20;99.90
59234;DHT22;60776;51.702;7.462;2023-08-30T11:16:02;20.90;99.90
59234;DHT22;60776;51.702;7.462;2023-08-30T11:18:30;20.60;99.90
59234;DHT22;60776;51.702;7.462;2023-08-30T11:21:02;20.30;99.90
59234;DHT22;60776;51.702;7.462;2023-08-30T11:23:27;20.00;99.90
59234;DHT22;60776;51.702;7.462;2023-08-30T11:25:53;19.90;99.90
59234;DHT22;60776;51.702;7.462;2023-08-30T11:28:23;19.80;99.90
59234;DHT22;60776;51.702;7.462;2023-08-30T11:30:50;19.70;99.90
59234;DHT22;60776;51.702;7.462;2023-08-30T11:33:17;19.70;99.90
59234;DHT22;60776;51.702;7.462;2023-08-30T11:35:44;19.70;99.90
59234;DHT22;60776;51.702;7.462;2023-08-30T11:38:11;19.70;99.90
59234;DHT22;60776;51.702;7.462;2023-08-30T11:40:36;19.70;99.90
59234;DHT22;60776;51.702;7.462;2023-08-30T11:43:02;19.60;99.90
59234;DHT22;60776;51.702;7.462;2023-08-30T11:45:32;19.50;99.90
59234;DHT22;60776;51.702;7.462;2023-08-30T11:47:59;19.20;99.90
59234;DHT22;60776;51.702;7.462;2023-08-30T11:50:26;19.10;99.90
59234;DHT22;60776;51.702;7.462;2023-08-30T11:52:52;19.00;99.90
59234;DHT22;60776;51.702;7.462;2023-08-30T11:55:20;19.00;99.90
59234;DHT22;60776;51.702;7.462;2023-08-30T11:57:48;18.90;99.90
59234;DHT22;60776;51.702;7.462;2023-08-30T12:00:15;18.80;99.90
59234;DHT22;60776;51.702;7.462;2023-08-30T12:02:40;18.60;99.90
59234;DHT22;60776;51.702;7.462;2023-08-30T12:05:11;18.40;99.90
59234;DHT22;60776;51.702;7.462;2023-08-30T12:07:37;18.30;99.90
59234;DHT22;60776;51.702;7.462;2023-08-30T12:10:10;18.00;99.90
59234;DHT22;60776;51.702;7.462;2023-08-30T12:12:36;17.70;99.90
59234;DHT22;60776;51.702;7.462;2023-08-30T12:15:10;17.50;99.90
59234;DHT22;60776;51.702;7.462;2023-08-30T12:17:36;17.30;99.90
59234;DHT22;60776;51.702;7.462;2023-08-30T12:20:02;17.10;99.90
59234;DHT22;60776;51.702;7.462;2023-08-30T12:22:38;17.10;99.90
59234;DHT22;60776;51.702;7.462;2023-08-30T12:25:17;17.30;99.90
59234;DHT22;60776;51.702;7.462;2023-08-30T12:27:43;17.60;99.90
59234;DHT22;60776;51.702;7.462;2023-08-30T12:30:09;17.50;99.90
59234;DHT22;60776;51.702;7.462;2023-08-30T12:32:35;17.50;99.90
59234;DHT22;60776;51.702;7.462;2023-08-30T12:35:00;17.70;99.90
59234;DHT22;60776;51.702;7.462;2023-08-30T12:37:26;17.80;99.90
59234;DHT22;60776;51.702;7.462;2023-08-30T12:39:51;17.90;99.90
59234;DHT22;60776;51.702;7.462;2023-08-30T12:42:17;17.90;99.90
59234;DHT22;60776;51.702;7.462;2023-08-30T12:44:43;18.00;99.90
59234;DHT22;60776;51.702;7.462;2023-08-30T12:47:11;18.10;99.90
59234;DHT22;60776;51.702;7.462;2023-08-30T12:49:39;18.40;99.90
59234;DHT22;60776;51.702;7.462;2023-08-30T12:52:05;18.30;99.90
59234;DHT22;60776;51.702;7.462;2023-08-30T12:54:31;18.40;99.90
59234;DHT22;60776;51.702;7.462;2023-08-30T12:56:57;18.50;99.90
59234;DHT22;60776;51.702;7.462;2023-08-30T12:59:22;18.50;99.90
59234;DHT22;60776;51.702;7.462;2023-08-30T13:01:48;18.60;99.90
59234;DHT22;60776;51.702;7.462;2023-08-30T13:04:13;18.70;99.90
59234;DHT22;60776;51.702;7.462;2023-08-30T13:06:39;18.80;99.90
59234;DHT22;60776;51.702;7.462;2023-08-30T13:09:05;18.90;99.90
59234;DHT22;60776;51.702;7.462;2023-08-30T13:11:30;18.90;99.90
59234;DHT22;60776;51.702;7.462;2023-08-30T13:13:58;18.90;99.90
59234;DHT22;60776;51.702;7.462;2023-08-30T13:16:24;18.90;99.90
59234;DHT22;60776;51.702;7.462;2023-08-30T13:18:50;18.80;99.90
59234;DHT22;60776;51.702;7.462;2023-08-30T13:21:15;18.90;99.90
59234;DHT22;60776;51.702;7.462;2023-08-30T13:23:41;19.00;99.90
59234;DHT22;60776;51.702;7.462;2023-08-30T13:26:07;19.20;99.90
59234;DHT22;60776;51.702;7.462;2023-08-30T13:28:33;19.20;99.90
59234;DHT22;60776;51.702;7.462;2023-08-30T13:30:59;19.40;99.90
59234;DHT22;60776;51.702;7.462;2023-08-30T13:33:28;19.50;99.90
59234;DHT22;60776;51.702;7.462;2023-08-30T13:35:56;19.60;99.90
59234;DHT22;60776;51.702;7.462;2023-08-30T13:38:22;19.80;99.90
59234;DHT22;60776;51.702;7.462;2023-08-30T13:40:48;19.90;99.90
59234;DHT22;60776;51.702;7.462;2023-08-30T13:43:14;20.00;99.90
59234;DHT22;60776;51.702;7.462;2023-08-30T13:45:39;19.90;99.90
59234;DHT22;60776;51.702;7.462;2023-08-30T13:48:07;19.90;99.90
59234;DHT22;60776;51.702;7.462;2023-08-30T13:50:41;19.70;99.90
59234;DHT22;60776;51.702;7.462;2023-08-30T13:53:06;19.60;99.90
59234;DHT22;60776;51.702;7.462;2023-08-30T13:55:32;19.60;99.90
59234;DHT22;60776;51.702;7.462;2023-08-30T13:57:58;19.40;99.90
59234;DHT22;60776;51.702;7.462;2023-08-30T14:00:24;19.20;99.90
59234;DHT22;60776;51.702;7.462;2023-08-30T14:02:50;19.10;99.90
59234;DHT22;60776;51.702;7.462;2023-08-30T14:05:17;18.90;99.90
59234;DHT22;60776;51.702;7.462;2023-08-30T14:07:43;18.80;99.90
59234;DHT22;60776;51.702;7.462;2023-08-30T14:10:09;18.70;99.90
59234;DHT22;60776;51.702;7.462;2023-08-30T14:12:36;18.60;99.90
59234;DHT22;60776;51.702;7.462;2023-08-30T14:15:02;18.50;99.90
59234;DHT22;60776;51.702;7.462;2023-08-30T14:17:28;18.50;99.90
59234;DHT22;60776;51.702;7.462;2023-08-30T14:19:56;18.40;99.90
59234;DHT22;60776;51.702;7.462;2023-08-30T14:22:26;18.30;99.90
59234;DHT22;60776;51.702;7.462;2023-08-30T14:24:52;18.20;99.90
59234;DHT22;60776;51.702;7.462;2023-08-30T14:27:17;18.10;99.90
59234;DHT22;60776;51.702;7.462;2023-08-30T14:29:43;18.00;99.90
59234;DHT22;60776;51.702;7.462;2023-08-30T14:32:09;17.80;99.90
59234;DHT22;60776;51.702;7.462;2023-08-30T14:34:35;17.60;99.90
59234;DHT22;60776;51.702;7.462;2023-08-30T14:37:01;17.50;99.90
59234;DHT22;60776;51.702;7.462;2023-08-30T14:39:27;17.50;99.90
59234;DHT22;60776;51.702;7.462;2023-08-30T14:41:53;17.70;99.90
59234;DHT22;60776;51.702;7.462;2023-08-30T14:44:19;17.90;99.90
59234;DHT22;60776;51.702;7.462;2023-08-30T14:46:45;18.00;99.90
59234;DHT22;60776;51.702;7.462;2023-08-30T14:49:11;18.20;99.90
59234;DHT22;60776;51.702;7.462;2023-08-30T14:51:36;18.30;99.90
59234;DHT22;60776;51.702;7.462;2023-08-30T14:54:02;18.30;99.90
59234;DHT22;60776;51.702;7.462;2023-08-30T14:56:28;18.30;99.90
59234;DHT22;60776;51.702;7.462;2023-08-30T14:58:53;18.30;99.90
59234;DHT22;60776;51.702;7.462;2023-08-30T15:01:19;18.40;99.90
59234;DHT22;60776;51.702;7.462;2023-08-30T15:03:45;18.50;99.90
59234;DHT22;60776;51.702;7.462;2023-08-30T15:06:10;18.40;99.90
59234;DHT22;60776;51.702;7.462;2023-08-30T15:08:36;18.40;99.90
59234;DHT22;60776;51.702;7.462;2023-08-30T15:11:02;18.40;99.90
59234;DHT22;60776;51.702;7.462;2023-08-30T15:13:28;18.40;99.90
59234;DHT22;60776;51.702;7.462;2023-08-30T15:15:55;18.20;99.90
59234;DHT22;60776;51.702;7.462;2023-08-30T15:18:20;18.10;99.90
59234;DHT22;60776;51.702;7.462;2023-08-30T15:20:46;17.80;99.90
59234;DHT22;60776;51.702;7.462;2023-08-30T15:23:15;17.70;99.90
59234;DHT22;60776;51.702;7.462;2023-08-30T15:25:44;17.60;99.90
59234;DHT22;60776;51.702;7.462;2023-08-30T15:28:10;17.50;99.90
59234;DHT22;60776;51.702;7.462;2023-08-30T15:30:36;17.40;99.90
59234;DHT22;60776;51.702;7.462;2023-08-30T15:33:01;17.20;99.90
59234;DHT22;60776;51.702;7.462;2023-08-30T15:35:27;17.20;99.90
59234;DHT22;60776;51.702;7.462;2023-08-30T15:37:53;17.20;99.90
59234;DHT22;60776;51.702;7.462;2023-08-30T15:40:19;17.30;99.90